Time;durP1;ratioP1;P1;durP2;ratioP2;P2;SDS_P1;SDS_P2;PMS_P1;PMS_P2;Temp;Humidity;BMP_temperature;BMP_pressure;BME280_temperature;BME280_humidity;BME280_pressure;Samples;Min_cycle;Max_cycle;Signal;HPM_P1;HPM_P2
2021/07/19 00:00:18;;;;;;;1.90;1.80;;;23.60;61.10;;;;;;5033189;28;20172;-69
2021/07/19 00:02:43;;;;;;;2.83;2.42;;;23.60;61.20;;;;;;5034039;28;20176;-69
2021/07/19 00:05:10;;;;;;;2.40;2.22;;;23.60;61.30;;;;;;5033680;28;20182;-69
2021/07/19 00:07:35;;;;;;;2.33;2.13;;;23.60;61.20;;;;;;5032844;28;20230;-69
2021/07/19 00:10:03;;;;;;;2.40;2.20;;;23.60;61.20;;;;;;5034182;28;20179;-70
2021/07/19 00:12:28;;;;;;;2.50;2.30;;;23.50;61.20;;;;;;5033097;28;20239;-69
2021/07/19 00:14:54;;;;;;;2.55;2.35;;;23.60;61.30;;;;;;5033232;28;20266;-69
2021/07/19 00:17:23;;;;;;;2.38;2.03;;;23.50;61.30;;;;;;5033508;28;20164;-70
2021/07/19 00:19:49;;;;;;;2.78;2.58;;;23.50;61.40;;;;;;5033406;28;20230;-70
2021/07/19 00:22:19;;;;;;;2.05;1.95;;;23.50;61.40;;;;;;5032953;28;20581;-69
2021/07/19 00:24:44;;;;;;;2.25;2.15;;;23.50;61.40;;;;;;5033291;28;20168;-69
2021/07/19 00:27:10;;;;;;;2.20;2.00;;;23.50;61.40;;;;;;5033514;28;20179;-69
2021/07/19 00:29:36;;;;;;;2.28;2.08;;;23.50;61.40;;;;;;5032307;28;20195;-68
2021/07/19 00:32:01;;;;;;;2.22;2.00;;;23.50;61.40;;;;;;5032957;28;20597;-68
2021/07/19 00:34:27;;;;;;;2.60;2.40;;;23.50;61.50;;;;;;5032871;28;20176;-69
2021/07/19 00:36:54;;;;;;;2.60;2.40;;;23.50;61.50;;;;;;5032957;28;20176;-69
2021/07/19 00:39:20;;;;;;;2.50;2.30;;;23.50;61.50;;;;;;5032816;28;20187;-70
2021/07/19 00:41:46;;;;;;;1.85;1.75;;;23.50;61.50;;;;;;5033417;28;20171;-69
2021/07/19 00:44:13;;;;;;;3.38;2.53;;;23.50;61.60;;;;;;5032792;28;20183;-70
2021/07/19 00:46:39;;;;;;;2.25;2.05;;;23.50;61.50;;;;;;5032530;28;20220;-68
2021/07/19 00:49:05;;;;;;;3.67;2.28;;;23.50;61.50;;;;;;5033098;28;20645;-68
2021/07/19 00:51:30;;;;;;;2.50;2.30;;;23.50;61.60;;;;;;5014852;28;20236;-69
2021/07/19 00:53:56;;;;;;;2.10;1.92;;;23.50;61.60;;;;;;5015229;28;20670;-68
2021/07/19 00:56:22;;;;;;;2.42;2.22;;;23.40;61.50;;;;;;5032413;28;20961;-69
2021/07/19 00:58:51;;;;;;;2.58;2.38;;;23.50;61.60;;;;;;5015594;28;20176;-68
2021/07/19 01:01:17;;;;;;;2.92;2.63;;;23.40;61.60;;;;;;5032686;28;20183;-69
2021/07/19 01:03:43;;;;;;;2.40;2.20;;;23.40;61.60;;;;;;5032381;28;20501;-69
2021/07/19 01:06:11;;;;;;;2.35;2.17;;;23.40;61.60;;;;;;5033123;28;20190;-69
2021/07/19 01:08:37;;;;;;;2.40;2.20;;;23.40;61.60;;;;;;5032375;28;20180;-70
2021/07/19 01:11:03;;;;;;;2.33;2.13;;;23.40;61.60;;;;;;5032436;28;20526;-70
2021/07/19 01:13:28;;;;;;;2.25;2.15;;;23.40;61.70;;;;;;5032302;28;20219;-69
2021/07/19 01:15:54;;;;;;;2.80;2.60;;;23.40;61.70;;;;;;5015331;28;20178;-70
2021/07/19 01:18:19;;;;;;;2.20;2.00;;;23.40;61.60;;;;;;5031899;28;20598;-69
2021/07/19 01:21:00;;;;;;;2.85;2.65;;;23.40;61.70;;;;;;5032655;28;20172;-70
2021/07/19 01:23:40;;;;;;;3.00;2.58;;;23.40;61.70;;;;;;5032890;28;20214;-69
2021/07/19 01:26:28;;;;;;;2.78;2.22;;;23.40;61.70;;;;;;5032262;28;20179;-68
2021/07/19 01:28:53;;;;;;;2.70;2.50;;;23.40;61.70;;;;;;5032500;28;20176;-68
2021/07/19 01:31:29;;;;;;;2.30;2.20;;;23.40;61.70;;;;;;5014652;28;20232;-69
2021/07/19 01:33:58;;;;;;;3.58;2.55;;;23.40;61.80;;;;;;5016171;28;20211;-68
2021/07/19 01:36:34;;;;;;;2.25;2.05;;;23.40;61.70;;;;;;5014575;28;20263;-70
2021/07/19 01:39:00;;;;;;;2.33;2.22;;;23.40;61.80;;;;;;5016003;28;20172;-69
2021/07/19 01:41:26;;;;;;;2.50;2.30;;;23.40;61.80;;;;;;4999518;28;20198;-69
2021/07/19 01:43:52;;;;;;;2.38;2.28;;;23.30;61.70;;;;;;5002555;28;20184;-69
2021/07/19 01:46:17;;;;;;;3.35;2.55;;;23.30;61.80;;;;;;5017953;28;20586;-68
2021/07/19 01:48:49;;;;;;;2.85;2.55;;;23.30;61.80;;;;;;4998969;28;20262;-69
2021/07/19 01:51:15;;;;;;;2.92;2.72;;;23.30;61.70;;;;;;4999045;28;20176;-69
2021/07/19 01:53:41;;;;;;;3.05;2.70;;;23.30;61.70;;;;;;4998242;28;20569;-68
2021/07/19 01:56:06;;;;;;;2.95;2.75;;;23.30;62.60;;;;;;4998851;28;20696;-69
2021/07/19 01:58:32;;;;;;;2.55;2.35;;;23.30;61.80;;;;;;4998828;28;20177;-69
2021/07/19 02:01:00;;;;;;;2.67;2.47;;;23.30;61.80;;;;;;5016038;28;20176;-70
2021/07/19 02:03:26;;;;;;;2.90;2.70;;;23.30;61.80;;;;;;5014788;28;20234;-69
2021/07/19 02:05:52;;;;;;;2.60;2.40;;;23.30;61.80;;;;;;5016265;28;20642;-70
2021/07/19 02:08:18;;;;;;;2.20;2.10;;;23.20;61.80;;;;;;5014156;28;20191;-70
2021/07/19 02:10:54;;;;;;;2.50;2.30;;;23.20;61.80;;;;;;5014897;28;20168;-70
2021/07/19 02:13:20;;;;;;;2.90;2.70;;;23.20;61.80;;;;;;5015990;28;20219;-70
2021/07/19 02:15:46;;;;;;;2.70;2.50;;;23.30;61.80;;;;;;5014467;28;20169;-70
2021/07/19 02:18:12;;;;;;;2.85;2.65;;;23.30;61.90;;;;;;5015804;28;20188;-70
2021/07/19 02:20:38;;;;;;;2.92;2.58;;;23.20;61.80;;;;;;5014424;28;20180;-70
2021/07/19 02:23:03;;;;;;;2.58;2.38;;;23.20;61.80;;;;;;5014594;28;20348;-69
2021/07/19 02:25:29;;;;;;;2.80;2.60;;;23.20;61.80;;;;;;5015668;28;20181;-69
2021/07/19 02:27:55;;;;;;;2.70;2.50;;;23.20;61.80;;;;;;5014242;28;20196;-68
2021/07/19 02:30:21;;;;;;;2.83;2.63;;;23.20;61.90;;;;;;5014446;28;20180;-68
2021/07/19 02:32:49;;;;;;;2.60;2.40;;;23.20;62.70;;;;;;5015537;28;20212;-69
2021/07/19 02:35:14;;;;;;;2.50;2.30;;;23.20;61.90;;;;;;5014990;28;20199;-69
2021/07/19 02:37:42;;;;;;;2.75;2.53;;;23.20;61.90;;;;;;5014176;28;20177;-69
2021/07/19 02:40:11;;;;;;;2.75;2.55;;;23.20;61.90;;;;;;5015858;28;20204;-70
2021/07/19 02:42:41;;;;;;;2.65;2.45;;;23.20;61.90;;;;;;5014923;28;20173;-69
2021/07/19 02:45:11;;;;;;;2.53;2.30;;;23.20;62.00;;;;;;5014270;28;20184;-69
2021/07/19 02:47:37;;;;;;;3.25;2.95;;;23.20;61.90;;;;;;5025726;28;20227;-68
2021/07/19 02:50:04;;;;;;;3.75;2.80;;;23.20;62.00;;;;;;5017105;28;20663;-69
2021/07/19 02:52:29;;;;;;;2.63;2.40;;;23.10;61.90;;;;;;5034602;28;20207;-69
2021/07/19 02:54:55;;;;;;;3.10;2.90;;;23.20;62.00;;;;;;5001240;28;20203;-68
2021/07/19 02:57:20;;;;;;;2.67;2.47;;;23.20;62.00;;;;;;5000299;28;20744;-69
2021/07/19 02:59:46;;;;;;;2.65;2.45;;;23.10;61.90;;;;;;5034860;28;20183;-68
2021/07/19 03:02:11;;;;;;;2.92;2.72;;;23.10;62.00;;;;;;5017367;28;20168;-69
2021/07/19 03:04:37;;;;;;;3.00;2.70;;;23.10;62.00;;;;;;5000348;28;20175;-69
2021/07/19 03:07:03;;;;;;;2.90;2.70;;;23.10;62.00;;;;;;5000970;28;20700;-70
2021/07/19 03:09:30;;;;;;;4.18;2.75;;;23.10;62.00;;;;;;5000607;28;20182;-70
2021/07/19 03:11:55;;;;;;;2.90;2.55;;;23.10;62.80;;;;;;5016895;28;20198;-70
2021/07/19 03:14:23;;;;;;;2.58;2.38;;;23.10;62.00;;;;;;5000196;28;20677;-70
2021/07/19 03:16:49;;;;;;;2.90;2.70;;;23.10;62.00;;;;;;5017131;28;20178;-70
2021/07/19 03:19:16;;;;;;;2.65;2.45;;;23.10;62.00;;;;;;5016499;28;20179;-70
2021/07/19 03:21:42;;;;;;;3.35;3.05;;;23.10;62.00;;;;;;5017101;28;20242;-70
2021/07/19 03:24:11;;;;;;;2.85;2.65;;;23.10;62.00;;;;;;5016364;28;20634;-69
2021/07/19 03:26:37;;;;;;;2.95;2.65;;;23.10;62.00;;;;;;5016614;28;20175;-69
2021/07/19 03:29:07;;;;;;;2.70;2.50;;;23.10;62.00;;;;;;5034411;28;20180;-68
2021/07/19 03:31:32;;;;;;;3.20;2.90;;;23.10;62.10;;;;;;5015883;28;20218;-68
2021/07/19 03:33:58;;;;;;;2.80;2.60;;;23.10;62.10;;;;;;5034315;28;20243;-69
2021/07/19 03:36:24;;;;;;;2.80;2.58;;;23.10;62.10;;;;;;5016640;28;20203;-69
2021/07/19 03:38:49;;;;;;;2.97;2.70;;;23.10;62.10;;;;;;4999792;28;20184;-69
2021/07/19 03:41:15;;;;;;;2.72;2.53;;;23.10;62.10;;;;;;5000189;28;20164;-69
2021/07/19 03:43:40;;;;;;;2.92;2.58;;;23.00;62.10;;;;;;5000368;28;20202;-69
2021/07/19 03:46:06;;;;;;;3.03;2.80;;;23.10;62.10;;;;;;5015936;28;20168;-69
2021/07/19 03:48:32;;;;;;;3.17;2.95;;;23.10;62.20;;;;;;5012592;28;20583;-69
2021/07/19 03:50:57;;;;;;;4.32;2.90;;;23.00;62.20;;;;;;5013401;28;20196;-69
2021/07/19 03:53:23;;;;;;;3.20;2.80;;;23.00;62.10;;;;;;5013478;28;20608;-69
2021/07/19 03:55:49;;;;;;;3.13;2.63;;;23.10;62.20;;;;;;4996246;28;20180;-70
2021/07/19 03:58:15;;;;;;;3.28;3.03;;;23.00;62.10;;;;;;5013104;28;20180;-68
2021/07/19 04:00:41;;;;;;;2.80;2.60;;;23.00;62.20;;;;;;5013508;28;20264;-67
2021/07/19 04:03:17;;;;;;;3.03;2.75;;;23.00;62.20;;;;;;5013952;28;20540;-68
2021/07/19 04:05:48;;;;;;;4.38;3.38;;;23.00;62.20;;;;;;5012790;28;20180;-70
2021/07/19 04:08:14;;;;;;;2.85;2.55;;;23.00;62.20;;;;;;5012804;28;20179;-68
2021/07/19 04:10:40;;;;;;;2.85;2.65;;;23.00;62.10;;;;;;4996426;28;20173;-69
2021/07/19 04:13:07;;;;;;;3.13;2.83;;;23.00;62.20;;;;;;4996413;28;20212;-68
2021/07/19 04:15:38;;;;;;;3.17;2.90;;;23.00;62.10;;;;;;5012277;28;20181;-68
2021/07/19 04:18:04;;;;;;;2.88;2.67;;;23.00;62.20;;;;;;5013917;28;20259;-69
2021/07/19 04:20:29;;;;;;;3.00;2.80;;;23.00;62.20;;;;;;5012280;28;20268;-68
2021/07/19 04:22:55;;;;;;;3.17;2.90;;;23.00;62.20;;;;;;5013841;28;20204;-68
2021/07/19 04:25:20;;;;;;;2.80;2.60;;;23.00;62.10;;;;;;4995934;28;20264;-69
2021/07/19 04:27:46;;;;;;;3.00;2.80;;;23.00;62.10;;;;;;5013316;28;20179;-69
2021/07/19 04:30:12;;;;;;;3.72;2.80;;;23.00;62.10;;;;;;5013594;28;20184;-69
2021/07/19 04:32:44;;;;;;;3.03;2.83;;;23.00;62.10;;;;;;5013601;28;20212;-69
2021/07/19 04:35:17;;;;;;;3.78;2.70;;;23.00;62.10;;;;;;5013807;28;20226;-70
2021/07/19 04:37:43;;;;;;;3.28;2.97;;;23.00;62.10;;;;;;5013511;28;20180;-69
2021/07/19 04:40:09;;;;;;;3.13;2.88;;;23.00;62.10;;;;;;5012806;28;20176;-69
2021/07/19 04:42:37;;;;;;;2.83;2.63;;;23.00;62.10;;;;;;5013582;28;20173;-68
2021/07/19 04:45:05;;;;;;;2.70;2.50;;;23.00;62.20;;;;;;5013453;28;20533;-68
2021/07/19 04:47:30;;;;;;;2.97;2.78;;;23.00;62.20;;;;;;5012089;28;20307;-68
2021/07/19 04:49:56;;;;;;;3.58;3.10;;;23.00;62.10;;;;;;5013120;28;20267;-69
2021/07/19 04:52:21;;;;;;;2.60;2.40;;;23.00;62.20;;;;;;5013599;28;20215;-68
2021/07/19 04:54:47;;;;;;;2.85;2.65;;;23.00;62.10;;;;;;5013020;28;20208;-68
2021/07/19 04:57:12;;;;;;;3.08;2.78;;;23.00;63.00;;;;;;5012439;28;20168;-68
2021/07/19 04:59:41;;;;;;;3.05;2.75;;;23.00;62.10;;;;;;4995947;28;20173;-68
2021/07/19 05:02:09;;;;;;;3.15;2.88;;;23.00;62.10;;;;;;4996854;28;20196;-68
2021/07/19 05:04:34;;;;;;;3.17;2.88;;;23.00;62.10;;;;;;5013597;28;20188;-68
2021/07/19 05:07:02;;;;;;;3.10;2.80;;;23.00;62.10;;;;;;5013770;28;20238;-69
2021/07/19 05:09:28;;;;;;;2.88;2.67;;;23.00;62.10;;;;;;5012259;28;20633;-69
2021/07/19 05:11:53;;;;;;;2.85;2.60;;;23.00;62.10;;;;;;5011808;28;20168;-69
2021/07/19 05:14:19;;;;;;;2.70;2.50;;;23.00;62.20;;;;;;5012234;28;20219;-68
2021/07/19 05:16:45;;;;;;;2.78;2.58;;;23.00;62.20;;;;;;5013558;28;20168;-70
2021/07/19 05:19:10;;;;;;;2.80;2.60;;;23.00;62.10;;;;;;5015739;28;20179;-70
2021/07/19 05:21:37;;;;;;;2.72;2.53;;;23.00;62.10;;;;;;5015686;28;20199;-69
2021/07/19 05:24:03;;;;;;;2.92;2.72;;;23.00;62.10;;;;;;5017211;28;20184;-69
2021/07/19 05:26:28;;;;;;;3.13;2.92;;;23.00;62.10;;;;;;5015763;28;20539;-68
2021/07/19 05:28:56;;;;;;;3.00;2.70;;;23.00;62.10;;;;;;5016464;28;20634;-68
2021/07/19 05:31:22;;;;;;;2.75;2.53;;;23.00;62.10;;;;;;5017000;28;20266;-68
2021/07/19 05:33:48;;;;;;;3.60;2.88;;;23.00;62.10;;;;;;5017282;28;20305;-68
2021/07/19 05:36:13;;;;;;;3.05;2.78;;;23.00;62.20;;;;;;5016943;28;20185;-69
2021/07/19 05:38:40;;;;;;;3.45;3.15;;;23.00;62.20;;;;;;5015922;28;20626;-70
2021/07/19 05:41:07;;;;;;;2.97;2.70;;;23.00;62.30;;;;;;5016457;28;20180;-70
2021/07/19 05:43:32;;;;;;;3.28;3.00;;;23.00;62.40;;;;;;5016568;28;20196;-70
2021/07/19 05:45:58;;;;;;;3.58;2.58;;;22.90;62.30;;;;;;5016181;28;20686;-69
2021/07/19 05:48:26;;;;;;;2.83;2.63;;;23.00;62.40;;;;;;5033017;28;20769;-69
2021/07/19 05:50:52;;;;;;;3.40;3.10;;;23.00;62.40;;;;;;5036465;28;20538;-69
2021/07/19 05:53:17;;;;;;;2.70;2.50;;;22.90;62.30;;;;;;5035352;28;20203;-70
2021/07/19 05:55:43;;;;;;;3.00;2.80;;;22.90;63.20;;;;;;5035972;28;20179;-69
2021/07/19 05:58:09;;;;;;;3.08;2.83;;;22.90;62.30;;;;;;5019073;28;20270;-68
2021/07/19 06:00:35;;;;;;;3.03;2.83;;;22.90;62.40;;;;;;5035561;28;20237;-68
2021/07/19 06:03:00;;;;;;;3.28;2.97;;;22.90;62.40;;;;;;5036062;28;20703;-68
2021/07/19 06:05:26;;;;;;;3.10;2.80;;;22.90;62.40;;;;;;5035813;28;20171;-69
2021/07/19 06:07:51;;;;;;;2.80;2.60;;;22.90;62.30;;;;;;5035475;28;20242;-70
2021/07/19 06:10:17;;;;;;;2.83;2.63;;;22.90;62.30;;;;;;5035366;28;20498;-69
2021/07/19 06:12:43;;;;;;;3.33;3.03;;;23.00;62.50;;;;;;5036007;28;20257;-69
2021/07/19 06:15:09;;;;;;;3.15;2.80;;;22.90;62.40;;;;;;5035181;28;20639;-69
2021/07/19 06:17:38;;;;;;;3.42;3.13;;;22.90;62.40;;;;;;5035437;28;20967;-69
2021/07/19 06:20:12;;;;;;;3.15;2.85;;;23.00;62.40;;;;;;5035344;28;20195;-70
2021/07/19 06:22:39;;;;;;;3.03;2.80;;;23.00;62.40;;;;;;5035181;28;20538;-70
2021/07/19 06:25:05;;;;;;;3.05;2.85;;;23.00;62.40;;;;;;5035952;28;20187;-70
2021/07/19 06:27:30;;;;;;;2.95;2.70;;;23.00;62.40;;;;;;5034241;28;20729;-69
2021/07/19 06:29:56;;;;;;;2.92;2.72;;;23.00;62.40;;;;;;5035390;28;20270;-66
2021/07/19 06:32:22;;;;;;;3.25;3.00;;;23.00;62.40;;;;;;5035236;28;20195;-68
2021/07/19 06:34:47;;;;;;;2.92;2.72;;;23.00;62.40;;;;;;5034982;28;20233;-68
2021/07/19 06:37:12;;;;;;;3.03;2.72;;;23.00;62.40;;;;;;5035219;28;20597;-68
2021/07/19 06:39:38;;;;;;;3.33;3.03;;;23.00;62.40;;;;;;5035344;28;20172;-66
2021/07/19 06:42:03;;;;;;;2.67;2.47;;;23.00;62.60;;;;;;5035090;28;20180;-66
2021/07/19 06:44:29;;;;;;;3.03;2.72;;;23.00;62.50;;;;;;5035040;28;20168;-67
2021/07/19 06:46:57;;;;;;;6.57;3.00;;;23.00;62.50;;;;;;5035218;28;20227;-66
2021/07/19 06:49:24;;;;;;;6.25;3.13;;;23.00;62.30;;;;;;5034472;28;20203;-67
2021/07/19 06:51:49;;;;;;;3.85;3.28;;;23.00;62.20;;;;;;5035156;28;20172;-67
2021/07/19 06:54:16;;;;;;;3.92;3.10;;;23.00;62.10;;;;;;5035074;28;20211;-66
2021/07/19 06:56:42;;;;;;;4.70;3.50;;;23.00;62.00;;;;;;5034672;28;20207;-68
2021/07/19 06:59:07;;;;;;;3.42;3.13;;;23.00;62.00;;;;;;5035000;28;20195;-67
2021/07/19 07:01:33;;;;;;;5.32;3.67;;;23.10;62.00;;;;;;5034672;28;20176;-68
2021/07/19 07:03:59;;;;;;;4.00;3.63;;;23.00;61.90;;;;;;5034460;28;20180;-71
2021/07/19 07:06:25;;;;;;;4.43;3.60;;;23.10;62.00;;;;;;5034355;28;20179;-69
2021/07/19 07:08:50;;;;;;;4.82;3.28;;;23.10;62.00;;;;;;5034881;28;20629;-70
2021/07/19 07:11:16;;;;;;;5.15;3.20;;;23.10;62.00;;;;;;5034056;28;20172;-69
2021/07/19 07:13:41;;;;;;;4.40;3.47;;;23.10;62.10;;;;;;5034767;28;20220;-69
2021/07/19 07:16:08;;;;;;;5.18;3.30;;;23.10;62.10;;;;;;5034782;28;20256;-69
2021/07/19 07:18:33;;;;;;;6.15;4.10;;;23.10;62.10;;;;;;5034076;28;20180;-70
2021/07/19 07:20:59;;;;;;;3.70;3.35;;;23.10;62.10;;;;;;5034603;28;20704;-70
2021/07/19 07:23:24;;;;;;;5.75;3.35;;;23.10;62.10;;;;;;5033795;28;20569;-70
2021/07/19 07:25:50;;;;;;;3.97;3.40;;;23.10;62.10;;;;;;5034529;28;20229;-68
2021/07/19 07:28:15;;;;;;;3.85;3.42;;;23.10;62.20;;;;;;5034614;28;20180;-68
2021/07/19 07:30:41;;;;;;;5.80;3.40;;;23.10;62.20;;;;;;5034066;28;20171;-68
2021/07/19 07:33:06;;;;;;;4.15;3.60;;;23.10;62.20;;;;;;5034336;28;20204;-68
2021/07/19 07:35:32;;;;;;;3.88;3.50;;;23.10;62.20;;;;;;5033928;28;20187;-69
2021/07/19 07:37:57;;;;;;;4.25;3.47;;;23.10;62.20;;;;;;5033699;28;20218;-67
2021/07/19 07:40:23;;;;;;;5.45;4.13;;;23.10;62.20;;;;;;5032948;28;20178;-71
2021/07/19 07:42:48;;;;;;;5.40;3.78;;;23.10;62.20;;;;;;5034365;28;20187;-70
2021/07/19 07:45:14;;;;;;;4.20;3.47;;;23.10;62.20;;;;;;5033806;28;20179;-71
2021/07/19 07:47:41;;;;;;;3.65;3.25;;;23.10;62.20;;;;;;5033513;28;20232;-70
2021/07/19 07:50:08;;;;;;;4.20;3.80;;;23.10;62.20;;;;;;5034077;28;20187;-70
2021/07/19 07:52:33;;;;;;;4.53;3.83;;;23.10;62.20;;;;;;5033191;28;20705;-69
2021/07/19 07:54:59;;;;;;;4.03;3.63;;;23.10;62.20;;;;;;5033956;28;20261;-67
2021/07/19 07:57:24;;;;;;;3.85;3.42;;;23.10;62.20;;;;;;5033966;28;20179;-67
2021/07/19 07:59:50;;;;;;;3.92;3.42;;;23.10;62.20;;;;;;5033456;28;20172;-68
2021/07/19 08:02:15;;;;;;;4.50;3.70;;;23.10;62.20;;;;;;5033435;28;20171;-67
2021/07/19 08:04:41;;;;;;;3.97;3.40;;;23.10;62.20;;;;;;5033760;28;20199;-68
2021/07/19 08:07:06;;;;;;;5.40;4.05;;;23.10;62.10;;;;;;5033484;28;20195;-68
2021/07/19 08:09:32;;;;;;;3.95;3.58;;;23.10;62.10;;;;;;5033491;28;20211;-67
2021/07/19 08:11:57;;;;;;;4.85;3.67;;;23.10;62.10;;;;;;5033760;28;20187;-67
2021/07/19 08:14:23;;;;;;;4.00;3.70;;;23.10;62.10;;;;;;5032457;28;20243;-66
2021/07/19 08:16:49;;;;;;;4.80;3.80;;;23.20;62.10;;;;;;5033807;28;20183;-68
2021/07/19 08:19:14;;;;;;;3.90;3.50;;;23.20;62.00;;;;;;5033483;28;20183;-69
2021/07/19 08:21:40;;;;;;;3.78;3.47;;;23.30;62.00;;;;;;5032575;28;20249;-68
2021/07/19 08:24:06;;;;;;;3.80;3.42;;;23.30;61.90;;;;;;5033778;28;20174;-68
2021/07/19 08:26:32;;;;;;;4.20;3.75;;;23.30;61.90;;;;;;5032839;28;20176;-66
2021/07/19 08:28:57;;;;;;;4.28;3.88;;;23.30;61.80;;;;;;5033286;28;20537;-66
2021/07/19 08:31:24;;;;;;;3.85;3.55;;;23.30;61.80;;;;;;5033063;28;20180;-66
2021/07/19 08:33:49;;;;;;;4.50;3.85;;;23.30;61.80;;;;;;5032673;28;20208;-67
2021/07/19 08:36:15;;;;;;;4.05;3.75;;;23.30;61.90;;;;;;5033049;28;20167;-68
2021/07/19 08:38:42;;;;;;;4.28;3.58;;;23.30;62.00;;;;;;5033414;28;20638;-69
2021/07/19 08:41:08;;;;;;;4.43;4.03;;;23.20;62.00;;;;;;5032578;28;20589;-69
2021/07/19 08:43:35;;;;;;;4.20;3.85;;;23.30;62.00;;;;;;5032865;28;20206;-70
2021/07/19 08:46:01;;;;;;;4.75;4.07;;;23.30;62.00;;;;;;5033162;28;20171;-69
2021/07/19 08:48:26;;;;;;;4.32;3.92;;;23.30;61.90;;;;;;5032039;28;20239;-70
2021/07/19 08:50:52;;;;;;;4.00;3.70;;;23.30;61.90;;;;;;5015075;28;20259;-69
2021/07/19 08:53:17;;;;;;;4.40;3.95;;;23.30;61.90;;;;;;5015411;28;20219;-69
2021/07/19 08:55:46;;;;;;;4.43;4.03;;;23.30;61.80;;;;;;5014836;28;20183;-70
2021/07/19 08:58:12;;;;;;;4.93;4.05;;;23.30;62.70;;;;;;4999885;28;20176;-69
2021/07/19 09:00:38;;;;;;;5.07;4.28;;;23.20;61.90;;;;;;5014976;28;20545;-69
2021/07/19 09:03:03;;;;;;;4.70;4.00;;;23.20;61.90;;;;;;4998405;28;20172;-69
2021/07/19 09:05:29;;;;;;;5.38;4.25;;;23.20;62.00;;;;;;5032602;28;20175;-70
2021/07/19 09:07:54;;;;;;;6.28;4.43;;;23.20;61.90;;;;;;4999121;28;20168;-70
2021/07/19 09:10:27;;;;;;;5.55;4.32;;;23.20;61.90;;;;;;5014521;28;20187;-69
2021/07/19 09:12:53;;;;;;;4.68;4.20;;;23.20;62.00;;;;;;5032641;28;20211;-69
2021/07/19 09:15:34;;;;;;;5.35;4.22;;;23.20;61.90;;;;;;5032372;28;20622;-69
2021/07/19 09:17:59;;;;;;;5.07;4.43;;;23.20;61.90;;;;;;5032029;28;20559;-70
2021/07/19 09:20:38;;;;;;;4.78;4.20;;;23.20;61.90;;;;;;5032612;28;20172;-70
2021/07/19 09:23:04;;;;;;;4.75;4.28;;;23.30;61.90;;;;;;5032452;28;20187;-70
2021/07/19 09:25:30;;;;;;;4.95;4.43;;;23.30;61.80;;;;;;5032251;28;20639;-69
2021/07/19 09:28:04;;;;;;;5.45;4.25;;;23.30;61.90;;;;;;5032747;28;20266;-68
2021/07/19 09:30:49;;;;;;;4.63;4.20;;;23.30;61.80;;;;;;5032133;28;20174;-68
2021/07/19 09:33:16;;;;;;;4.60;4.00;;;23.30;61.70;;;;;;5032457;28;20203;-68
2021/07/19 09:35:45;;;;;;;4.78;4.38;;;23.40;61.60;;;;;;5032769;28;20187;-68
2021/07/19 09:38:15;;;;;;;5.30;4.63;;;23.40;61.50;;;;;;5032000;28;20179;-69
2021/07/19 09:40:43;;;;;;;5.10;4.43;;;23.40;61.40;;;;;;5032579;28;20218;-70
2021/07/19 09:43:15;;;;;;;5.43;4.93;;;23.40;61.40;;;;;;5032664;28;20184;-68
2021/07/19 09:45:40;;;;;;;5.57;5.07;;;23.50;61.40;;;;;;5031784;28;20541;-70
2021/07/19 09:48:07;;;;;;;5.05;4.60;;;23.50;61.30;;;;;;5014774;28;20314;-70
2021/07/19 09:50:53;;;;;;;5.65;4.47;;;23.50;61.20;;;;;;5031190;28;20188;-69
2021/07/19 09:53:33;;;;;;;4.72;4.32;;;23.50;61.20;;;;;;5032082;28;20215;-69
2021/07/19 09:56:19;;;;;;;4.60;4.20;;;23.50;61.40;;;;;;5032544;28;20176;-71
2021/07/19 09:58:47;;;;;;;5.30;4.70;;;23.50;61.40;;;;;;5031921;28;20207;-68
2021/07/19 10:01:30;;;;;;;5.03;4.55;;;23.50;61.60;;;;;;5032156;28;20176;-69
2021/07/19 10:04:05;;;;;;;4.97;4.45;;;23.50;61.50;;;;;;5036128;28;20180;-71
2021/07/19 10:06:31;;;;;;;6.57;5.00;;;23.50;61.50;;;;;;5035571;28;20256;-70
2021/07/19 10:09:00;;;;;;;5.55;4.95;;;23.50;61.50;;;;;;5035738;28;20258;-70
2021/07/19 10:11:33;;;;;;;6.13;4.63;;;23.50;61.50;;;;;;5035912;28;20254;-68
2021/07/19 10:14:01;;;;;;;5.70;5.07;;;23.50;61.60;;;;;;5035375;28;20218;-69
2021/07/19 10:16:31;;;;;;;6.43;5.25;;;23.40;61.60;;;;;;5034967;28;20180;-69
2021/07/19 10:19:00;;;;;;;5.50;5.00;;;23.50;62.60;;;;;;5036347;28;20172;-70
2021/07/19 10:21:29;;;;;;;5.93;4.75;;;23.50;61.80;;;;;;5035232;28;20183;-71
2021/07/19 10:24:00;;;;;;;5.50;4.97;;;23.50;61.80;;;;;;5035812;28;20175;-69
2021/07/19 10:26:27;;;;;;;5.88;5.28;;;23.50;61.70;;;;;;5022994;28;20181;-68
2021/07/19 10:28:52;;;;;;;5.25;4.53;;;23.50;61.70;;;;;;5020883;28;20275;-68
2021/07/19 10:31:18;;;;;;;6.80;5.32;;;23.60;61.70;;;;;;5032281;28;20179;-69
2021/07/19 10:33:44;;;;;;;5.25;4.75;;;23.50;61.50;;;;;;5035024;28;20685;-71
2021/07/19 10:36:11;;;;;;;6.32;5.00;;;23.50;61.40;;;;;;5017803;28;20208;-71
2021/07/19 10:38:37;;;;;;;5.55;4.97;;;23.60;61.60;;;;;;5017830;28;20183;-70
2021/07/19 10:41:03;;;;;;;6.20;5.60;;;23.60;62.30;;;;;;5017455;28;20239;-72
2021/07/19 10:43:29;;;;;;;5.82;4.90;;;23.60;61.50;;;;;;5035134;28;20182;-69
2021/07/19 10:45:57;;;;;;;6.28;4.75;;;23.60;62.40;;;;;;5018188;28;20225;-70
2021/07/19 10:48:34;;;;;;;6.43;5.13;;;23.60;61.40;;;;;;5034408;28;20235;-70
2021/07/19 10:51:17;;;;;;;6.88;5.10;;;23.60;61.30;;;;;;5035187;28;20233;-69
2021/07/19 10:53:42;;;;;;;5.53;4.75;;;23.70;61.10;;;;;;5034909;28;20224;-70
2021/07/19 10:56:09;;;;;;;8.35;5.25;;;23.70;61.00;;;;;;5033621;28;20179;-69
2021/07/19 10:58:45;;;;;;;6.65;5.30;;;23.70;61.00;;;;;;5035025;28;20178;-69
2021/07/19 11:01:28;;;;;;;5.60;5.10;;;23.70;61.00;;;;;;5035163;28;20189;-71
2021/07/19 11:03:54;;;;;;;7.90;5.32;;;23.80;61.10;;;;;;5034912;28;20263;-71
2021/07/19 11:06:33;;;;;;;6.15;4.93;;;23.90;60.90;;;;;;5034977;28;20262;-71
2021/07/19 11:09:00;;;;;;;7.90;5.35;;;23.90;60.80;;;;;;5034599;28;20182;-70
2021/07/19 11:11:26;;;;;;;5.32;4.82;;;23.90;60.80;;;;;;5034370;28;20176;-69
2021/07/19 11:13:57;;;;;;;7.32;5.30;;;23.90;60.80;;;;;;5034756;28;20215;-69
2021/07/19 11:16:22;;;;;;;7.38;5.28;;;23.90;60.40;;;;;;5034011;28;20712;-69
2021/07/19 11:18:55;;;;;;;6.38;5.78;;;23.90;60.40;;;;;;5016794;28;20179;-70
2021/07/19 11:21:26;;;;;;;6.13;5.50;;;23.90;60.50;;;;;;5016841;28;20259;-70
2021/07/19 11:23:51;;;;;;;6.13;5.60;;;23.90;60.50;;;;;;5034128;28;20210;-70
2021/07/19 11:26:25;;;;;;;7.28;5.80;;;23.90;60.50;;;;;;5034320;28;20168;-69
2021/07/19 11:28:50;;;;;;;6.20;5.60;;;23.90;60.30;;;;;;5034707;28;20230;-68
2021/07/19 11:31:26;;;;;;;6.18;5.63;;;23.80;60.40;;;;;;5033653;28;20180;-68
2021/07/19 11:34:00;;;;;;;7.88;5.60;;;23.80;60.60;;;;;;5034417;28;20674;-70
2021/07/19 11:36:32;;;;;;;6.70;6.03;;;23.80;60.50;;;;;;5033927;28;20207;-70
2021/07/19 11:39:00;;;;;;;5.72;5.22;;;23.80;60.40;;;;;;5034345;28;20180;-70
2021/07/19 11:41:30;;;;;;;6.90;6.20;;;23.90;60.10;;;;;;5034192;28;20180;-71
2021/07/19 11:43:57;;;;;;;6.88;6.00;;;23.90;60.10;;;;;;5033958;28;20183;-69
2021/07/19 11:46:26;;;;;;;6.40;5.80;;;23.90;60.00;;;;;;5033704;28;20171;-70
2021/07/19 11:49:13;;;;;;;7.50;6.80;;;23.90;60.00;;;;;;5034191;28;20253;-69
2021/07/19 11:51:40;;;;;;;6.85;5.75;;;23.90;60.10;;;;;;5033229;28;20175;-69
2021/07/19 11:54:08;;;;;;;6.22;5.70;;;23.80;60.10;;;;;;5033724;28;20748;-70
2021/07/19 11:56:34;;;;;;;6.43;5.85;;;23.80;60.20;;;;;;5016677;28;20190;-69
2021/07/19 11:59:01;;;;;;;6.65;6.05;;;23.70;60.30;;;;;;5033468;28;20175;-69
2021/07/19 12:01:27;;;;;;;7.38;6.55;;;23.70;60.40;;;;;;5033672;28;20530;-70
2021/07/19 12:03:54;;;;;;;6.32;5.72;;;23.70;60.40;;;;;;5033762;28;20179;-66
2021/07/19 12:06:20;;;;;;;6.43;5.82;;;23.70;60.50;;;;;;5032626;28;20184;-71
2021/07/19 12:08:57;;;;;;;6.93;6.32;;;23.70;60.60;;;;;;5033909;28;20183;-69
2021/07/19 12:11:23;;;;;;;7.00;6.30;;;23.70;60.50;;;;;;5033768;28;20176;-69
2021/07/19 12:13:48;;;;;;;7.40;6.68;;;23.70;60.60;;;;;;5033032;28;20302;-70
2021/07/19 12:16:14;;;;;;;7.22;6.50;;;23.70;60.60;;;;;;5033828;28;20262;-69
2021/07/19 12:18:49;;;;;;;7.82;6.55;;;23.90;60.10;;;;;;5032761;28;20183;-70
2021/07/19 12:21:19;;;;;;;6.30;5.70;;;23.90;59.90;;;;;;5033620;28;20222;-71
2021/07/19 12:23:49;;;;;;;7.53;6.75;;;24.00;59.70;;;;;;5033737;28;20180;-69
2021/07/19 12:26:18;;;;;;;6.22;5.63;;;24.00;59.70;;;;;;5032511;28;20500;-68
2021/07/19 12:28:57;;;;;;;7.05;6.18;;;24.00;59.70;;;;;;5033234;28;20195;-65
2021/07/19 12:31:33;;;;;;;8.48;7.07;;;24.00;59.90;;;;;;5033103;28;20176;-68
2021/07/19 12:34:11;;;;;;;6.63;5.93;;;23.90;60.00;;;;;;5015864;28;20685;-69
2021/07/19 12:36:37;;;;;;;7.78;6.45;;;23.90;60.10;;;;;;5033075;28;20181;-71
2021/07/19 12:39:05;;;;;;;7.80;7.03;;;23.90;60.30;;;;;;5033400;28;20313;-68
2021/07/19 12:41:32;;;;;;;8.18;7.28;;;23.90;60.60;;;;;;5034869;28;20172;-68
2021/07/19 12:44:00;;;;;;;14.55;7.07;;;24.00;60.40;;;;;;5034927;28;20179;-68
2021/07/19 12:46:25;;;;;;;7.63;6.38;;;24.00;60.10;;;;;;5015288;28;20259;-68
2021/07/19 12:48:51;;;;;;;7.75;7.05;;;24.00;60.10;;;;;;5014850;28;20275;-69